Ride Results

Shahzada Tuesday (22-08-2006)
Ride distance: 80.0 km

Outcomes - Shahzada Tuesday (22-08-2006)
Division No. of Entries Retired / DNE Completed Withdrawn Ineligible V/O Percentage Completed
HW 9 - 9 - - - 100.00%
MW 22 - 19 2 - 1 86.36%
LW 5 - 5 - - - 100.00%
JN 5 - 4 - - 1 80.00%
Totals 41 - 37 2 - 2 90.24%
Results - Shahzada Tuesday (22-08-2006)
No. Rider Horse Place Time Leg Speeds Total
Km/Hr
H/R bpm
Heavyweight
140 Duncan Satchell Alhambra Mirage 1 5:11:00 16.5, 13.8 15.43 32, 44, 44 (Avg:44)
143 Andrew Bailey Aloha Zelus 2 6:22:00 12.4, 12.6 12.57 37, 40, 42 (Avg:41)
195 Thomas Hermann TTH Headliner 3 6:39:00 13.8, 9.8 12.03 37, 46, 46 (Avg:46)
151 Juanita Lambe Sa'eed 4 6:57:00 11.8, 11.0 11.51 28, 32, 49 (Avg:40)
171 Lorraine Cubbin Clovelly Park Kazeem 5 7:00:00 12.8, 9.6 11.43 44, 34, 42 (Avg:38)
148 Stuart Lymbery Garonne Park Walker 6 7:07:00 11.1, 11.3 11.24 38, 44, 60 (Avg:52)
174 Steve Barlow Dunwingeri Maashhar 7 8:04:00 10.3, 9.2 9.92 40, 43, 40 (Avg:41)
144 Belinda Hopley Girilambone Sorcerer 7 8:04:00 10.3, 9.2 9.92 30, 40, 42 (Avg:41)
161 Renee Edwards Saxon Khan 9 8:23:00 9.9, 8.9 9.54 44, 46, 46 (Avg:46)
Middleweight
139 Karen Weeden PPP Xan 1 5:11:00 16.5, 13.8 15.43 30, 44, 50 (Avg:47)
175 Stuart Hitchcock Farras 2 5:21:00 15.4, 14.1 14.95 37, 40, 48 (Avg:44)
158 Annette Truman El Shataan Adu Baba 3 5:23:00 15.4, 13.9 14.86 33, 37, 59 (Avg:48)
142 Annette Bailey Rosemont Pathfinder 4 6:22:00 12.4, 12.6 12.57 29, 35, 40 (Avg:37)
155 Amanda Jansen Webbs Creek Ripling 5 6:28:00 12.8, 11.6 12.37 31, 39, 44 (Avg:41)
138 Fritz Seehofer Bramasky Perter Pan 6 6:56:00 11.8, 11.1 11.54 40, 40, 50 (Avg:45)
170 Sandi Brown Gravy Train 7 7:00:00 12.8, 9.6 11.43 32, 39, 41 (Avg:40)
189 Marita Rifai Tuldar Slingshot 8 7:02:00 13.5, 9.0 11.37 38, 44, 50 (Avg:47)
188 Tracy Haack Sinbad 9 7:04:00 13.5, 8.9 11.32 34, 42, 53 (Avg:47)
141 Jason Kirk Bungarra Telika 9 7:04:00 11.3, 11.3 11.32 40, 44, 49 (Avg:46)
160 Chris Cheney Garonne Park Tiara 11 7:06:00 11.2, 11.3 11.27 36, 38, 40 (Avg:39)
166 Brett Willis Cedar Ridge Bedouin Boy 11 7:06:00 12.3, 9.7 11.27 41, 41, 46 (Avg:43)
156 Susan Pritchard Macquarie Park Dakota 13 7:51:00 11.0, 9.0 10.19 39, 40, 48 (Avg:44)
169 Shan Symons Pagewood Ablaze 14 7:52:00 11.0, 9.0 10.17 34, 50, 44 (Avg:47)
173 Bob Howden Leshal Ikon 15 7:54:00 10.2, 9.8 10.13 35, 40, 42 (Avg:41)
153 Fiona Groth Sideshow Bob 16 8:15:00 10.3, 8.7 9.70 34, 51, 52 (Avg:51)
193 Lyn Dillon Judstan Susannah 17 8:19:00 10.4, 8.4 9.62 43, 38, 52 (Avg:45)
185 Katrina Bodewes Leechdale Golden Jackpot 18 8:20:00 10.4, 8.4 9.60 32, 49, 54 (Avg:51)
164 Glenda Edwards Vudu Flyte 19 8:23:00 9.9, 8.9 9.54 34, 46, 56 (Avg:51)
165 Christopher Bailey Cedar Ridge D''Artagnan Lame L2 0:00:00 12.3, 9.7 - 30, 35, 39 (Avg:37)
183 Leisa Neal Bungarra Leanna Withdrawn L1 0:00:00 - - 32, 42 (Avg:42)
178 Rebecca Hogan Rowallan Sonic Withdrawn P/R 0:00:00 - - 31
Lightweight
190 Ava Pellizzari Razorback Blue Kakadu 1 4:56:00 16.6, 15.5 16.22 36, 32, 47 (Avg:39)
192 Louise Stevens Follydown Flintstone 2 5:31:00 16.7, 11.8 14.50 33, 40, 43 (Avg:41)
150 Adeline Gibson Blake's Heaven Bombora 3 6:40:00 13.5, 10.1 12.00 30, 54, 50 (Avg:52)
177 Roz Edmunds Wimborne Look Who's Talking 4 7:20:00 13.5, 8.2 10.91 34, 48, 54 (Avg:51)
146 Kate Pilley Stretch 5 8:06:00 10.3, 9.1 9.88 34, 46, 55 (Avg:50)
Junior
154 Louise Wormell Ausden Monet 1 5:50:00 15.3, 11.6 13.71 34, 42, 40 (Avg:41)
149 Lorien Hasko-Stewart Wantley Kaliph 2 6:02:00 14.5, 11.5 13.26 35, 46, 55 (Avg:50)
145 Sophie Babic Rise 'N' Shine 3 7:51:00 11.0, 9.0 10.19 36, 40, 46 (Avg:43)
147 Seton Croake Cameo Stormboy 4 8:06:00 10.3, 9.1 9.88 37, 40, 48 (Avg:44)
194 Zoe Locke Fire Phoenix Lame L2 0:00:00 13.7, 14.2 - 50, 48, 52 (Avg:50)